createdAt,value
2018-09-23T00:01:59.530Z,40.43
2018-09-23T00:04:32.163Z,38.47
2018-09-23T00:07:04.543Z,33.70
2018-09-23T00:09:37.009Z,45.03
2018-09-23T00:12:09.589Z,33.90
2018-09-23T00:14:42.118Z,28.33
2018-09-23T00:17:14.608Z,28.10
2018-09-23T00:19:50.367Z,35.20
2018-09-23T00:22:23.217Z,41.50
2018-09-23T00:24:56.079Z,60.13
2018-09-23T00:27:28.823Z,64.20
2018-09-23T00:30:01.614Z,65.65
2018-09-23T00:32:34.294Z,142.90
2018-09-23T00:35:06.977Z,168.10
2018-09-23T00:37:39.423Z,117.77
2018-09-23T00:40:24.544Z,57.23
2018-09-23T00:43:06.354Z,33.10
2018-09-23T00:45:53.056Z,18.67
2018-09-23T00:48:36.036Z,22.17
2018-09-23T00:51:27.669Z,21.53
2018-09-23T00:54:07.377Z,23.50
2018-09-23T00:56:48.573Z,23.70
2018-09-23T00:59:23.210Z,23.57
2018-09-23T01:02:02.563Z,20.93
2018-09-23T01:04:43.120Z,17.83
2018-09-23T01:10:01.011Z,14.87
2018-09-23T01:12:33.705Z,19.40
2018-09-23T01:15:06.271Z,24.43
2018-09-23T01:17:38.907Z,16.73
2018-09-23T01:20:11.495Z,16.63
2018-09-23T01:22:46.791Z,13.63
2018-09-23T01:25:19.232Z,14.83
2018-09-23T01:27:51.671Z,17.90
2018-09-23T01:30:25.899Z,14.58
2018-09-23T01:32:58.403Z,17.50
2018-09-23T01:35:31.209Z,13.20
2018-09-23T01:38:03.717Z,19.05
2018-09-23T01:40:36.245Z,17.23
2018-09-23T01:43:09.035Z,15.28
2018-09-23T01:45:41.565Z,20.70
2018-09-23T01:48:14.452Z,19.80
2018-09-23T01:50:46.898Z,18.23
2018-09-23T01:53:19.645Z,18.87
2018-09-23T01:55:52.661Z,18.83
2018-09-23T01:58:25.211Z,19.17
2018-09-23T02:00:58.219Z,19.57
2018-09-23T02:03:30.706Z,16.93
2018-09-23T02:06:03.592Z,23.60
2018-09-23T02:08:36.308Z,13.43
2018-09-23T02:11:08.738Z,18.30
2018-09-23T02:13:41.333Z,19.40
2018-09-23T02:16:13.864Z,17.67
2018-09-23T02:18:46.269Z,16.20
2018-09-23T02:21:19.247Z,18.27
2018-09-23T02:23:51.999Z,16.60
2018-09-23T02:26:24.467Z,13.30
2018-09-23T02:28:56.857Z,14.50
2018-09-23T02:31:29.303Z,17.60
2018-09-23T02:34:01.736Z,16.17
2018-09-23T02:36:34.258Z,14.83
2018-09-23T02:39:06.987Z,18.90
2018-09-23T02:41:39.487Z,14.70
2018-09-23T02:44:12.419Z,18.23
2018-09-23T02:46:45.014Z,18.00
2018-09-23T02:49:18.490Z,17.50
2018-09-23T02:51:51.087Z,17.43
2018-09-23T02:54:24.212Z,16.07
2018-09-23T02:56:56.953Z,18.63
2018-09-23T02:59:33.012Z,15.63
2018-09-23T03:02:06.191Z,16.70
2018-09-23T03:04:39.085Z,15.80
2018-09-23T03:07:11.840Z,17.67
2018-09-23T03:09:44.330Z,16.20
2018-09-23T03:12:19.112Z,16.80
2018-09-23T03:14:51.607Z,15.40
2018-09-23T03:17:24.315Z,12.93
2018-09-23T03:19:56.858Z,12.63
2018-09-23T03:22:29.352Z,16.87
2018-09-23T03:25:01.793Z,13.70
2018-09-23T03:27:34.812Z,11.83
2018-09-23T03:30:07.311Z,13.17
2018-09-23T03:32:39.760Z,17.70
2018-09-23T03:35:12.380Z,12.68
2018-09-23T03:37:45.043Z,12.70
2018-09-23T03:40:18.591Z,13.50
2018-09-23T03:42:51.337Z,12.47
2018-09-23T03:45:24.041Z,11.93
2018-09-23T03:47:56.614Z,14.50
2018-09-23T03:50:29.277Z,13.50
2018-09-23T03:53:01.805Z,26.43
2018-09-23T03:55:36.079Z,11.23
2018-09-23T03:58:10.369Z,10.30
2018-09-23T04:00:43.065Z,10.50
2018-09-23T04:03:15.513Z,9.87
2018-09-23T04:05:48.002Z,11.47
2018-09-23T04:08:20.706Z,13.17
2018-09-23T04:10:53.736Z,12.20
2018-09-23T04:13:27.089Z,13.90
2018-09-23T04:15:59.966Z,13.80
2018-09-23T04:18:32.536Z,12.57
2018-09-23T04:21:05.222Z,12.30
2018-09-23T04:23:37.759Z,12.30
2018-09-23T04:26:11.231Z,13.63
2018-09-23T04:28:44.727Z,13.10
2018-09-23T04:31:17.255Z,16.33
2018-09-23T04:33:50.359Z,15.43
2018-09-23T04:36:22.915Z,17.37
2018-09-23T04:38:55.608Z,15.60
2018-09-23T04:41:28.421Z,15.78
2018-09-23T04:44:01.155Z,14.43
2018-09-23T04:46:33.644Z,14.43
2018-09-23T04:49:06.113Z,13.40
2018-09-23T04:51:38.831Z,14.20
2018-09-23T04:54:12.754Z,13.40
2018-09-23T04:56:45.537Z,13.40
2018-09-23T04:59:21.648Z,15.78
2018-09-23T05:01:57.501Z,15.00
2018-09-23T05:04:31.771Z,14.50
2018-09-23T05:07:04.354Z,13.77
2018-09-23T05:09:36.963Z,13.43
2018-09-23T05:12:09.403Z,14.47
2018-09-23T05:14:42.190Z,13.17
2018-09-23T05:17:14.749Z,15.90
2018-09-23T05:19:47.757Z,15.23
2018-09-23T05:22:20.247Z,22.73
2018-09-23T05:24:52.768Z,18.70
2018-09-23T05:27:25.963Z,17.12
2018-09-23T05:29:58.521Z,16.73
2018-09-23T05:32:31.896Z,15.43
2018-09-23T05:35:04.461Z,16.57
2018-09-23T05:37:39.059Z,17.90
2018-09-23T05:40:12.168Z,15.23
2018-09-23T05:42:45.179Z,19.43
2018-09-23T05:45:18.645Z,15.53
2018-09-23T05:47:51.131Z,15.50
2018-09-23T05:50:24.257Z,16.83
2018-09-23T05:52:56.997Z,16.52
2018-09-23T05:55:30.017Z,15.57
2018-09-23T05:58:02.730Z,15.57
2018-09-23T06:00:44.664Z,15.65
2018-09-23T06:03:17.349Z,16.13
2018-09-23T06:05:57.131Z,15.53
2018-09-23T06:08:30.598Z,16.15
2018-09-23T06:11:03.248Z,16.70
2018-09-23T06:13:35.923Z,14.57
2018-09-23T06:16:08.188Z,16.13
2018-09-23T06:18:40.716Z,15.40
2018-09-23T06:21:13.250Z,15.93
2018-09-23T06:23:45.681Z,18.67
2018-09-23T06:26:18.169Z,15.67
2018-09-23T06:28:50.627Z,18.40
2018-09-23T06:31:23.086Z,15.47
2018-09-23T06:33:55.484Z,17.27
2018-09-23T06:36:27.966Z,16.80
2018-09-23T06:39:00.563Z,16.67
2018-09-23T06:41:33.112Z,12.53
2018-09-23T06:44:05.718Z,12.93
2018-09-23T06:46:38.295Z,13.60
2018-09-23T06:49:10.768Z,15.23
2018-09-23T06:51:43.549Z,16.48
2018-09-23T06:54:16.118Z,15.33
2018-09-23T06:56:48.902Z,14.10
2018-09-23T06:59:21.770Z,13.40
2018-09-23T07:01:54.190Z,13.73
2018-09-23T07:04:27.104Z,13.23
2018-09-23T07:06:59.780Z,15.23
2018-09-23T07:09:32.264Z,14.30
2018-09-23T07:12:04.964Z,14.37
2018-09-23T07:14:37.741Z,14.27
2018-09-23T07:17:10.415Z,16.93
2018-09-23T07:19:43.140Z,16.33
2018-09-23T07:22:15.771Z,14.20
2018-09-23T07:24:48.262Z,16.40
2018-09-23T07:27:21.175Z,15.50
2018-09-23T07:29:55.044Z,13.20
2018-09-23T07:32:27.702Z,15.07
2018-09-23T07:35:00.222Z,12.87
2018-09-23T07:37:33.158Z,14.80
2018-09-23T07:40:05.820Z,15.77
2018-09-23T07:42:38.684Z,17.30
2018-09-23T07:45:11.401Z,15.97
2018-09-23T07:47:43.977Z,14.10
2018-09-23T07:50:16.648Z,16.87
2018-09-23T07:52:49.437Z,17.60
2018-09-23T07:55:21.912Z,17.50
2018-09-23T07:57:54.768Z,20.70
2018-09-23T08:00:28.041Z,17.33
2018-09-23T08:03:00.523Z,15.67
2018-09-23T08:05:38.910Z,14.87
2018-09-23T08:08:11.429Z,17.07
2018-09-23T08:10:44.038Z,15.93
2018-09-23T08:13:16.768Z,17.57
2018-09-23T08:15:49.412Z,15.83
2018-09-23T08:18:23.222Z,14.93
2018-09-23T08:20:55.886Z,14.20
2018-09-23T08:23:28.443Z,14.00
2018-09-23T08:26:00.892Z,15.07
2018-09-23T08:28:33.281Z,14.77
2018-09-23T08:31:05.736Z,14.37
2018-09-23T08:33:37.986Z,12.70
2018-09-23T08:36:10.599Z,15.77
2018-09-23T08:38:43.007Z,14.43
2018-09-23T08:41:15.482Z,17.10
2018-09-23T08:43:48.098Z,13.00
2018-09-23T08:46:20.478Z,13.53
2018-09-23T08:48:53.173Z,15.50
2018-09-23T08:51:25.893Z,13.80
2018-09-23T08:53:58.588Z,14.63
2018-09-23T08:56:30.955Z,17.37
2018-09-23T08:59:03.438Z,13.47
2018-09-23T09:01:37.901Z,15.10
2018-09-23T09:04:10.575Z,15.53
2018-09-23T09:06:42.973Z,18.32
2018-09-23T09:09:15.427Z,17.90
2018-09-23T09:11:47.895Z,15.30
2018-09-23T09:14:20.540Z,14.67
2018-09-23T09:16:53.057Z,14.73
2018-09-23T09:19:25.769Z,15.97
2018-09-23T09:21:58.444Z,15.63
2018-09-23T09:24:30.943Z,13.67
2018-09-23T09:27:03.373Z,14.13
2018-09-23T09:29:35.821Z,12.80
2018-09-23T09:32:08.477Z,13.30
2018-09-23T09:34:41.031Z,14.10
2018-09-23T09:37:13.423Z,15.50
2018-09-23T09:39:46.012Z,14.30
2018-09-23T09:42:18.448Z,14.03
2018-09-23T09:44:51.199Z,15.20
2018-09-23T09:47:23.826Z,13.37
2018-09-23T09:49:56.196Z,14.43
2018-09-23T09:52:29.200Z,15.50
2018-09-23T09:55:01.692Z,13.97
2018-09-23T09:57:34.511Z,13.80
2018-09-23T10:00:07.626Z,14.87
2018-09-23T10:02:40.075Z,15.90
2018-09-23T10:05:12.563Z,14.80
2018-09-23T10:07:45.220Z,10.97
2018-09-23T10:10:24.367Z,13.63
2018-09-23T10:13:02.650Z,15.13
2018-09-23T10:15:35.121Z,16.60
2018-09-23T10:18:08.715Z,16.77
2018-09-23T10:20:41.326Z,13.73
2018-09-23T10:23:15.231Z,16.63
2018-09-23T10:25:49.427Z,15.27
2018-09-23T10:28:22.005Z,15.93
2018-09-23T10:30:54.523Z,15.13
2018-09-23T10:33:26.915Z,15.57
2018-09-23T10:35:59.587Z,16.77
2018-09-23T10:38:32.128Z,15.43
2018-09-23T10:41:04.437Z,15.87
2018-09-23T10:43:36.849Z,14.93
2018-09-23T10:46:09.617Z,14.67
2018-09-23T10:48:42.246Z,15.03
2018-09-23T10:51:14.801Z,13.77
2018-09-23T10:53:47.274Z,14.47
2018-09-23T10:56:20.353Z,14.20
2018-09-23T10:58:53.247Z,14.40
2018-09-23T11:01:25.741Z,15.27
2018-09-23T11:03:58.383Z,17.87
2018-09-23T11:06:31.112Z,16.80
2018-09-23T11:09:03.525Z,16.57
2018-09-23T11:11:36.162Z,17.23
2018-09-23T11:14:08.717Z,14.63
2018-09-23T11:16:41.289Z,14.07
2018-09-23T11:19:15.520Z,17.13
2018-09-23T11:21:48.103Z,14.73
2018-09-23T11:24:20.796Z,19.03
2018-09-23T11:26:53.327Z,19.02
2018-09-23T11:29:26.238Z,19.70
2018-09-23T11:31:58.846Z,17.33
2018-09-23T11:34:31.266Z,16.13
2018-09-23T11:37:03.766Z,15.80
2018-09-23T11:39:36.678Z,16.93
2018-09-23T11:42:09.104Z,48.83
2018-09-23T11:44:41.805Z,21.23
2018-09-23T11:47:15.833Z,17.10
2018-09-23T11:49:48.432Z,19.63
2018-09-23T11:52:22.473Z,16.73
2018-09-23T11:54:55.222Z,16.63
2018-09-23T11:57:27.663Z,21.47
2018-09-23T12:00:00.156Z,20.27
2018-09-23T12:02:41.835Z,21.60
2018-09-23T12:05:23.865Z,23.23
2018-09-23T12:07:58.938Z,17.73
2018-09-23T12:10:31.886Z,22.77
2018-09-23T12:13:04.589Z,23.37
2018-09-23T12:15:45.038Z,19.80
2018-09-23T12:18:24.781Z,18.93
2018-09-23T12:21:01.727Z,19.67
2018-09-23T12:23:39.993Z,20.43
2018-09-23T12:26:12.480Z,19.77
2018-09-23T12:28:45.310Z,19.47
2018-09-23T12:31:18.267Z,17.00
2018-09-23T12:33:50.643Z,15.60
2018-09-23T12:36:23.346Z,24.87
2018-09-23T12:38:56.380Z,17.07
2018-09-23T12:41:29.018Z,17.80
2018-09-23T12:44:01.426Z,17.47
2018-09-23T12:46:34.909Z,15.48
2018-09-23T12:49:07.328Z,14.83
2018-09-23T12:51:39.905Z,15.10
2018-09-23T12:54:12.454Z,14.58
2018-09-23T12:56:44.972Z,15.43
2018-09-23T12:59:19.060Z,17.23
2018-09-23T13:01:55.545Z,15.33
2018-09-23T13:04:32.383Z,17.33
2018-09-23T13:07:04.958Z,15.60
2018-09-23T13:09:39.663Z,13.00
2018-09-23T13:12:16.105Z,14.23
2018-09-23T13:14:49.684Z,12.60
2018-09-23T13:17:26.349Z,13.90
2018-09-23T13:20:02.946Z,19.60
2018-09-23T13:22:38.395Z,13.40
2018-09-23T13:25:14.520Z,16.30
2018-09-23T13:27:50.895Z,19.50
2018-09-23T13:30:26.960Z,17.30
2018-09-23T13:33:02.681Z,16.07
2018-09-23T13:35:39.656Z,15.93
2018-09-23T13:38:15.221Z,13.03
2018-09-23T13:40:49.634Z,14.53
2018-09-23T13:43:25.904Z,15.10
2018-09-23T13:46:02.343Z,13.87
2018-09-23T13:48:39.854Z,8.97
2018-09-23T13:51:15.748Z,8.50
2018-09-23T13:53:52.178Z,12.43
2018-09-23T13:56:29.409Z,7.43
2018-09-23T13:59:05.655Z,11.87
2018-09-23T14:01:42.436Z,9.53
2018-09-23T14:04:18.814Z,9.63
2018-09-23T14:06:54.961Z,6.93
2018-09-23T14:09:30.398Z,6.43
2018-09-23T14:12:06.978Z,6.37
2018-09-23T14:14:42.630Z,10.03
2018-09-23T14:17:17.589Z,5.47
2018-09-23T14:19:53.815Z,6.37
2018-09-23T14:22:29.647Z,5.00
2018-09-23T14:25:05.947Z,9.73
2018-09-23T14:27:41.343Z,9.33
2018-09-23T14:30:17.860Z,8.13
2018-09-23T14:32:51.613Z,8.00
2018-09-23T14:35:28.335Z,7.90
2018-09-23T14:38:04.849Z,10.37
2018-09-23T14:40:41.159Z,8.20
2018-09-23T14:43:17.738Z,9.63
2018-09-23T14:45:52.483Z,10.17
2018-09-23T14:48:28.929Z,6.27
2018-09-23T14:51:03.799Z,7.07
2018-09-23T14:53:39.504Z,7.77
2018-09-23T14:56:14.779Z,6.72
2018-09-23T14:58:51.629Z,5.40
2018-09-23T15:01:28.031Z,8.90
2018-09-23T15:04:04.125Z,9.30
2018-09-23T15:06:38.721Z,6.93
2018-09-23T15:09:15.578Z,8.90
2018-09-23T15:11:51.864Z,7.90
2018-09-23T15:14:27.744Z,7.33
2018-09-23T15:17:03.723Z,19.07
2018-09-23T15:19:44.407Z,9.70
2018-09-23T15:22:20.290Z,7.87
2018-09-23T15:24:56.337Z,5.37
2018-09-23T15:27:32.614Z,9.77
2018-09-23T15:30:11.171Z,6.50
2018-09-23T15:32:46.782Z,10.00
2018-09-23T15:35:23.671Z,6.73
2018-09-23T15:37:58.661Z,8.17
2018-09-23T15:40:34.330Z,7.87
2018-09-23T15:43:10.917Z,12.20
2018-09-23T15:45:47.402Z,9.93
2018-09-23T15:48:23.820Z,7.97
2018-09-23T15:51:00.072Z,8.60
2018-09-23T15:56:28.686Z,12.03
2018-09-23T15:59:05.012Z,7.40
2018-09-23T16:01:40.618Z,6.60
2018-09-23T16:04:16.689Z,4.20
2018-09-23T16:06:53.401Z,9.13
2018-09-23T16:09:27.974Z,9.27
2018-09-23T16:12:03.698Z,7.60
2018-09-23T16:14:38.311Z,7.50
2018-09-23T16:17:15.051Z,8.07
2018-09-23T16:19:51.095Z,3.07
2018-09-23T16:22:27.252Z,5.40
2018-09-23T16:25:03.669Z,8.25
2018-09-23T16:27:39.658Z,7.10
2018-09-23T16:30:11.656Z,5.63
2018-09-23T16:32:44.396Z,5.13
2018-09-23T16:35:18.266Z,7.90
2018-09-23T16:37:51.273Z,8.03
2018-09-23T16:40:24.299Z,6.30
2018-09-23T16:42:57.270Z,4.77
2018-09-23T16:45:34.622Z,6.40
2018-09-23T16:48:07.995Z,6.60
2018-09-23T16:50:41.201Z,12.03
2018-09-23T16:53:14.402Z,18.37
2018-09-23T16:55:46.992Z,13.73
2018-09-23T16:58:20.567Z,9.13
2018-09-23T17:00:53.806Z,7.60
2018-09-23T17:03:26.512Z,8.67
2018-09-23T17:06:00.131Z,7.07
2018-09-23T17:08:33.090Z,8.40
2018-09-23T17:11:06.275Z,7.25
2018-09-23T17:13:39.269Z,5.57
2018-09-23T17:16:11.921Z,7.43
2018-09-23T17:18:44.658Z,7.83
2018-09-23T17:21:17.345Z,8.20
2018-09-23T17:23:49.929Z,8.07
2018-09-23T17:26:23.039Z,8.60
2018-09-23T17:28:55.980Z,5.53
2018-09-23T17:31:28.753Z,7.92
2018-09-23T17:34:04.178Z,11.70
2018-09-23T17:36:37.173Z,10.77
2018-09-23T17:39:13.048Z,9.40
2018-09-23T17:41:53.095Z,7.90
2018-09-23T17:44:29.861Z,6.73
2018-09-23T17:47:04.852Z,6.87
2018-09-23T17:49:37.859Z,8.40
2018-09-23T17:52:10.627Z,10.63
2018-09-23T17:54:48.241Z,5.77
2018-09-23T17:57:21.327Z,7.60
2018-09-23T17:59:54.401Z,7.67
2018-09-23T18:02:30.037Z,6.70
2018-09-23T18:05:04.560Z,4.85
2018-09-23T18:07:37.615Z,4.50
2018-09-23T18:10:16.257Z,7.63
2018-09-23T18:12:52.941Z,10.37
2018-09-23T18:15:35.875Z,4.73
2018-09-23T18:18:11.300Z,8.03
2018-09-23T18:20:46.242Z,6.80
2018-09-23T18:23:20.673Z,4.30
2018-09-23T18:25:58.541Z,8.83
2018-09-23T18:28:36.674Z,8.53
2018-09-23T18:31:09.711Z,8.83
2018-09-23T18:33:43.623Z,13.40
2018-09-23T18:36:23.660Z,10.87
2018-09-23T18:38:58.630Z,7.57
2018-09-23T18:41:42.600Z,4.63
2018-09-23T18:44:31.703Z,4.90
2018-09-23T18:47:04.677Z,6.87
2018-09-23T18:49:37.846Z,5.27
2018-09-23T18:52:12.080Z,8.87
2018-09-23T18:54:50.187Z,4.20
2018-09-23T18:57:23.688Z,6.03
2018-09-23T18:59:58.118Z,5.95
2018-09-23T19:02:31.494Z,10.47
2018-09-23T19:05:04.131Z,8.57
2018-09-23T19:07:38.576Z,7.00
2018-09-23T19:10:10.873Z,4.70
2018-09-23T19:12:46.768Z,4.70
2018-09-23T19:15:19.647Z,5.83
2018-09-23T19:17:53.453Z,6.83
2018-09-23T19:20:26.219Z,6.43
2018-09-23T19:23:03.111Z,8.73
2018-09-23T19:25:36.076Z,6.28
2018-09-23T19:28:08.960Z,5.43
2018-09-23T19:30:41.477Z,7.97
2018-09-23T19:33:14.097Z,8.00
2018-09-23T19:35:46.681Z,9.28
2018-09-23T19:38:19.250Z,7.97
2018-09-23T19:40:51.785Z,11.37
2018-09-23T19:43:24.399Z,6.50
2018-09-23T19:45:56.915Z,10.27
2018-09-23T19:48:32.038Z,9.57
2018-09-23T19:51:04.779Z,7.67
2018-09-23T19:53:37.487Z,14.30
2018-09-23T19:56:09.971Z,6.47
2018-09-23T19:58:45.052Z,9.40
2018-09-23T20:01:17.977Z,8.90
2018-09-23T20:03:50.920Z,6.07
2018-09-23T20:06:24.414Z,6.13
2018-09-23T20:08:57.127Z,3.67
2018-09-23T20:11:30.683Z,6.43
2018-09-23T20:14:03.433Z,5.97
2018-09-23T20:16:35.995Z,8.93
2018-09-23T20:19:10.001Z,9.63
2018-09-23T20:21:42.638Z,6.27
2018-09-23T20:24:16.427Z,6.67
2018-09-23T20:28:12.363Z,12.00
2018-09-23T20:30:44.946Z,4.77
2018-09-23T20:33:17.563Z,16.13
2018-09-23T20:35:50.714Z,12.97
2018-09-23T20:38:23.339Z,8.20
2018-09-23T20:40:55.983Z,6.43
2018-09-23T20:43:28.595Z,9.57
2018-09-23T20:46:01.151Z,11.03
2018-09-23T20:48:33.974Z,6.73
2018-09-23T20:51:06.670Z,10.63
2018-09-23T20:53:39.489Z,9.33
2018-09-23T20:56:12.277Z,5.20
2018-09-23T20:58:44.937Z,11.77
2018-09-23T21:01:17.781Z,10.53
2018-09-23T21:03:50.507Z,8.70
2018-09-23T21:06:23.165Z,7.80
2018-09-23T21:08:55.887Z,9.23
2018-09-23T21:11:28.551Z,6.40
2018-09-23T21:14:01.317Z,8.60
2018-09-23T21:16:33.837Z,6.33
2018-09-23T21:19:07.359Z,8.90
2018-09-23T21:21:40.490Z,10.98
2018-09-23T21:24:13.799Z,15.57
2018-09-23T21:26:46.370Z,6.00
2018-09-23T21:29:19.092Z,6.97
2018-09-23T21:31:51.850Z,4.10
2018-09-23T21:34:24.564Z,5.57
2018-09-23T21:36:58.054Z,11.03
2018-09-23T21:39:30.781Z,8.60
2018-09-23T21:42:03.515Z,4.40
2018-09-23T21:44:36.165Z,11.60
2018-09-23T21:47:09.186Z,14.57
2018-09-23T21:49:44.428Z,6.97
2018-09-23T21:52:17.331Z,10.20
2018-09-23T21:54:49.956Z,7.20
2018-09-23T21:57:23.219Z,9.57
2018-09-23T21:59:56.603Z,12.43
2018-09-23T22:02:29.783Z,10.33
2018-09-23T22:05:02.434Z,10.72
2018-09-23T22:07:35.404Z,12.07
2018-09-23T22:10:10.380Z,9.23
2018-09-23T22:12:42.969Z,10.00
2018-09-23T22:15:22.392Z,11.10
2018-09-23T22:17:55.666Z,8.10
2018-09-23T22:20:28.611Z,10.77
2018-09-23T22:23:01.457Z,5.67
2018-09-23T22:25:34.023Z,5.77
2018-09-23T22:28:07.853Z,8.60
2018-09-23T22:30:40.806Z,18.80
2018-09-23T22:33:13.550Z,7.27
2018-09-23T22:35:46.549Z,4.03
2018-09-23T22:38:19.174Z,4.97
2018-09-23T22:40:53.914Z,8.00
2018-09-23T22:43:27.359Z,9.47
2018-09-23T22:46:00.374Z,14.23
2018-09-23T22:48:40.520Z,12.03
2018-09-23T22:51:13.505Z,8.37
2018-09-23T22:53:51.525Z,11.05
2018-09-23T22:56:24.452Z,13.20
2018-09-23T22:58:58.730Z,11.13
2018-09-23T23:01:34.807Z,11.95
2018-09-23T23:04:07.702Z,10.80
2018-09-23T23:06:41.788Z,11.60
2018-09-23T23:09:14.828Z,12.20
2018-09-23T23:11:49.465Z,7.63
2018-09-23T23:14:24.192Z,11.90
2018-09-23T23:16:57.405Z,10.30
2018-09-23T23:19:30.376Z,10.20
2018-09-23T23:22:04.189Z,10.83
2018-09-23T23:24:43.237Z,11.90
2018-09-23T23:27:20.653Z,11.33
2018-09-23T23:29:53.559Z,13.30
2018-09-23T23:32:26.238Z,12.30
2018-09-23T23:34:59.107Z,10.57
2018-09-23T23:37:31.798Z,11.30
2018-09-23T23:40:04.942Z,8.40
2018-09-23T23:42:37.608Z,9.77
2018-09-23T23:45:10.113Z,8.00
2018-09-23T23:47:43.715Z,9.57
2018-09-23T23:50:16.342Z,9.20
2018-09-23T23:52:49.259Z,9.67
2018-09-23T23:55:28.252Z,15.67
2018-09-23T23:58:13.165Z,11.40
